Terminal Aerodrome Forecast
Issued by NWS Missoula, MT

Home | Current Version | Previous Version | Text Only | Print | Product List | Glossary On
Versions: 1 2 3 4 5 6 7 8 9 10 11 12 13 14 15 16 17 18 19 20 21
773
FTUS45 KMSO 120907 AAC
TAFMSO
TAF AMD
KMSO 120907Z 1209/1306 VRB03KT 1SM BR OVC002
      TEMPO 1209/1212 1/4SM FZFG VV002
     FM121400 VRB03KT 3SM BR OVC006=

USA.gov is the U.S. government's official web portal to all federal, state and local government web resources and services.